createdAt,value
2018-12-16T00:00:54.963Z,69.69
2018-12-16T00:01:55.084Z,69.88
2018-12-16T00:02:54.967Z,69.76
2018-12-16T00:03:55.229Z,69.79
2018-12-16T00:04:54.923Z,69.77
2018-12-16T00:05:55.711Z,69.84
2018-12-16T00:06:54.857Z,69.9
2018-12-16T00:07:54.910Z,70.05
2018-12-16T00:08:55.053Z,69.99
2018-12-16T00:09:55.077Z,69.9
2018-12-16T00:10:55.698Z,69.9
2018-12-16T00:11:55.194Z,69.73
2018-12-16T00:12:54.901Z,69.88
2018-12-16T00:13:54.933Z,69.95
2018-12-16T00:14:54.974Z,70.27
2018-12-16T00:15:54.839Z,70.15
2018-12-16T00:16:55.221Z,70.05
2018-12-16T00:17:54.886Z,69.97
2018-12-16T00:18:55.017Z,69.94
2018-12-16T00:19:54.903Z,70.11
2018-12-16T00:20:55.052Z,70.12
2018-12-16T00:21:55.020Z,70.08
2018-12-16T00:22:55.062Z,70.04
2018-12-16T00:23:54.998Z,70.06
2018-12-16T00:24:55.147Z,70.02
2018-12-16T00:25:55.613Z,69.86
2018-12-16T00:26:55.020Z,69.97
2018-12-16T00:27:55.026Z,70.05
2018-12-16T00:28:54.897Z,70.21
2018-12-16T00:29:55.005Z,70.19
2018-12-16T00:30:55.114Z,70.21
2018-12-16T00:31:54.883Z,70.16
2018-12-16T00:32:55.037Z,70.13
2018-12-16T00:33:55.087Z,70.1
2018-12-16T00:34:55.014Z,70.1
2018-12-16T00:35:55.227Z,69.94
2018-12-16T00:36:54.999Z,70.01
2018-12-16T00:37:55.232Z,70.1
2018-12-16T00:38:54.927Z,70.19
2018-12-16T00:39:55.059Z,70.25
2018-12-16T00:40:54.842Z,70.48
2018-12-16T00:41:55.062Z,70.39
2018-12-16T00:42:54.898Z,70.43
2018-12-16T00:43:54.942Z,70.67
2018-12-16T00:44:55.112Z,70.39
2018-12-16T00:45:54.919Z,70.62
2018-12-16T00:46:55.252Z,70.72
2018-12-16T00:47:54.846Z,70.6
2018-12-16T00:48:54.857Z,70.68
2018-12-16T00:49:54.805Z,70.41
2018-12-16T00:50:55.062Z,70.47
2018-12-16T00:51:54.833Z,70.58
2018-12-16T00:52:54.882Z,70.41
2018-12-16T00:53:54.850Z,70.67
2018-12-16T00:54:54.794Z,70.76
2018-12-16T00:55:54.822Z,70.64
2018-12-16T00:56:54.780Z,70.68
2018-12-16T00:57:54.818Z,70.8
2018-12-16T00:58:54.913Z,70.6
2018-12-16T00:59:54.988Z,70.88
2018-12-16T01:00:54.808Z,70.78
2018-12-16T01:01:54.883Z,70.69
2018-12-16T01:02:54.792Z,70.7
2018-12-16T01:03:55.191Z,70.72
2018-12-16T01:04:55.069Z,70.9
2018-12-16T01:05:54.825Z,70.98
2018-12-16T01:06:55.001Z,70.95
2018-12-16T01:07:54.869Z,70.91
2018-12-16T01:08:55.153Z,71.18
2018-12-16T01:09:54.964Z,70.97
2018-12-16T01:10:55.112Z,70.91
2018-12-16T01:11:54.854Z,70.99
2018-12-16T01:12:54.802Z,70.99
2018-12-16T01:13:55.134Z,70.84
2018-12-16T01:14:54.773Z,70.8
2018-12-16T01:15:55.144Z,70.66
2018-12-16T01:16:54.800Z,70.86
2018-12-16T01:17:55.249Z,71.1
2018-12-16T01:18:55.129Z,70.71
2018-12-16T01:19:55.185Z,70.98
2018-12-16T01:20:55.263Z,70.9
2018-12-16T01:21:54.839Z,70.86
2018-12-16T01:22:55.016Z,71.1
2018-12-16T01:23:54.809Z,70.97
2018-12-16T01:24:54.993Z,70.98
2018-12-16T01:25:54.760Z,70.58
2018-12-16T01:26:55.098Z,70.73
2018-12-16T01:27:55.170Z,70.81
2018-12-16T01:28:55.191Z,70.94
2018-12-16T01:29:55.112Z,70.92
2018-12-16T01:30:54.857Z,71.05
2018-12-16T01:31:54.788Z,70.79
2018-12-16T01:32:55.427Z,70.9
2018-12-16T01:33:54.818Z,70.97
2018-12-16T01:34:54.775Z,70.97
2018-12-16T01:35:54.970Z,71.22
2018-12-16T01:36:54.839Z,71.15
2018-12-16T01:37:54.949Z,70.91
2018-12-16T01:38:54.795Z,70.92
2018-12-16T01:39:54.801Z,71.02
2018-12-16T01:40:55.037Z,71.19
2018-12-16T01:41:54.792Z,71.04
2018-12-16T01:42:55.038Z,71.24
2018-12-16T01:43:55.262Z,71.29
2018-12-16T01:44:55.008Z,71.23
2018-12-16T01:45:54.904Z,71.42
2018-12-16T01:46:54.981Z,71.57
2018-12-16T01:47:54.904Z,71.47
2018-12-16T01:48:54.907Z,71.71
2018-12-16T01:49:54.813Z,71.42
2018-12-16T01:50:54.930Z,71.33
2018-12-16T01:51:54.908Z,71.54
2018-12-16T01:52:54.905Z,71.54
2018-12-16T01:53:54.756Z,71.26
2018-12-16T01:54:54.810Z,71.29
2018-12-16T01:55:54.795Z,71.24
2018-12-16T01:56:55.123Z,71.39
2018-12-16T01:57:54.818Z,71.52
2018-12-16T01:58:55.022Z,71.37
2018-12-16T01:59:54.763Z,71.3
2018-12-16T02:00:54.826Z,71.41
2018-12-16T02:01:54.722Z,71.29
2018-12-16T02:02:55.065Z,71.35
2018-12-16T02:03:54.688Z,71.53
2018-12-16T02:04:55.136Z,71.57
2018-12-16T02:05:54.714Z,71.57
2018-12-16T02:06:54.780Z,71.52
2018-12-16T02:07:54.813Z,71.46
2018-12-16T02:08:54.753Z,71.56
2018-12-16T02:09:54.811Z,71.57
2018-12-16T02:10:54.701Z,71.31
2018-12-16T02:11:54.769Z,71.29
2018-12-16T02:12:55.070Z,71.42
2018-12-16T02:13:54.944Z,71.48
2018-12-16T02:14:54.677Z,71.32
2018-12-16T02:15:54.831Z,71.45
2018-12-16T02:16:54.742Z,71.45
2018-12-16T02:17:54.745Z,71.37
2018-12-16T02:18:54.718Z,71.32
2018-12-16T02:19:54.848Z,71.24
2018-12-16T02:20:54.889Z,71.45
2018-12-16T02:21:54.853Z,71.69
2018-12-16T02:22:57.390Z,71.55
2018-12-16T02:23:54.687Z,71.59
2018-12-16T02:24:54.912Z,71.64
2018-12-16T02:25:54.783Z,71.72
2018-12-16T02:26:54.668Z,71.92
2018-12-16T02:27:54.678Z,71.61
2018-12-16T02:28:54.712Z,71.71
2018-12-16T02:29:54.758Z,72.04
2018-12-16T02:30:54.786Z,71.83
2018-12-16T02:31:54.733Z,71.66
2018-12-16T02:32:54.745Z,71.9
2018-12-16T02:33:54.684Z,71.81
2018-12-16T02:34:54.661Z,72.03
2018-12-16T02:35:54.992Z,71.69
2018-12-16T02:36:54.693Z,71.45
2018-12-16T02:37:54.731Z,71.41
2018-12-16T02:38:54.673Z,71.33
2018-12-16T02:39:54.696Z,71.51
2018-12-16T02:40:54.694Z,71.59
2018-12-16T02:41:54.778Z,71.79
2018-12-16T02:42:54.792Z,71.74
2018-12-16T02:43:54.727Z,71.59
2018-12-16T02:44:54.710Z,71.74
2018-12-16T02:45:54.849Z,71.64
2018-12-16T02:46:54.913Z,71.6
2018-12-16T02:47:54.883Z,71.48
2018-12-16T02:48:54.741Z,71.53
2018-12-16T02:49:54.782Z,71.68
2018-12-16T02:50:55.050Z,71.34
2018-12-16T02:51:54.711Z,71.61
2018-12-16T02:52:54.646Z,71.84
2018-12-16T02:53:54.780Z,71.89
2018-12-16T02:54:54.698Z,71.63
2018-12-16T02:55:54.670Z,71.75
2018-12-16T02:56:54.832Z,71.73
2018-12-16T02:57:54.721Z,71.68
2018-12-16T02:58:54.680Z,71.5
2018-12-16T02:59:54.788Z,71.56
2018-12-16T03:00:54.709Z,71.71
2018-12-16T03:01:54.752Z,71.83
2018-12-16T03:02:54.762Z,71.82
2018-12-16T03:03:55.342Z,71.71
2018-12-16T03:04:54.640Z,72.05
2018-12-16T03:05:54.796Z,72.15
2018-12-16T03:06:54.778Z,71.8
2018-12-16T03:07:55.065Z,71.94
2018-12-16T03:08:54.692Z,71.75
2018-12-16T03:09:54.687Z,71.72
2018-12-16T03:10:54.846Z,71.88
2018-12-16T03:11:54.722Z,71.92
2018-12-16T03:12:54.629Z,72.04
2018-12-16T03:13:54.628Z,71.73
2018-12-16T03:14:54.694Z,71.92
2018-12-16T03:15:54.741Z,71.98
2018-12-16T03:16:54.597Z,71.91
2018-12-16T03:17:54.595Z,72.02
2018-12-16T03:18:54.940Z,72.09
2018-12-16T03:19:54.649Z,71.85
2018-12-16T03:20:55.010Z,71.92
2018-12-16T03:21:54.784Z,71.92
2018-12-16T03:22:54.868Z,71.96
2018-12-16T03:23:54.711Z,72.02
2018-12-16T03:24:54.735Z,72.15
2018-12-16T03:25:54.793Z,72.09
2018-12-16T03:26:54.692Z,71.99
2018-12-16T03:27:54.671Z,72
2018-12-16T03:28:54.664Z,72.07
2018-12-16T03:29:54.648Z,71.85
2018-12-16T03:30:54.674Z,72.08
2018-12-16T03:31:54.631Z,71.95
2018-12-16T03:32:54.771Z,71.81
2018-12-16T03:33:54.859Z,71.83
2018-12-16T03:34:54.601Z,72
2018-12-16T03:35:54.803Z,72.02
2018-12-16T03:36:54.657Z,72.17
2018-12-16T03:37:54.624Z,72.05
2018-12-16T03:38:54.585Z,72.16
2018-12-16T03:39:54.838Z,72.12
2018-12-16T03:40:54.670Z,72.17
2018-12-16T03:41:54.958Z,72.05
2018-12-16T03:42:54.789Z,71.94
2018-12-16T03:43:54.757Z,71.99
2018-12-16T03:44:54.723Z,71.89
2018-12-16T03:45:54.947Z,72.08
2018-12-16T03:46:54.786Z,72.24
2018-12-16T03:47:54.639Z,71.99
2018-12-16T03:48:54.636Z,72.13
2018-12-16T03:49:54.763Z,72.05
2018-12-16T03:50:54.739Z,72.07
2018-12-16T03:51:54.705Z,72.08
2018-12-16T03:52:54.754Z,72.24
2018-12-16T03:53:54.701Z,72.29
2018-12-16T03:54:54.686Z,72.23
2018-12-16T03:55:54.684Z,72.29
2018-12-16T03:56:54.558Z,72.25
2018-12-16T03:57:54.623Z,72.31
2018-12-16T03:58:54.559Z,72.39
2018-12-16T03:59:54.702Z,72.39
2018-12-16T04:00:54.694Z,72.39
2018-12-16T04:01:54.651Z,72.29
2018-12-16T04:02:54.541Z,72.32
2018-12-16T04:03:54.576Z,72.35
2018-12-16T04:04:54.553Z,72.39
2018-12-16T04:05:54.611Z,72.39
2018-12-16T04:06:54.500Z,72.43
2018-12-16T04:07:54.641Z,72.62
2018-12-16T04:08:54.562Z,72.74
2018-12-16T04:09:54.617Z,72.63
2018-12-16T04:10:54.525Z,72.96
2018-12-16T04:11:54.549Z,73.22
2018-12-16T04:12:54.558Z,73.24
2018-12-16T04:13:54.532Z,73.35
2018-12-16T04:14:54.547Z,73.96
2018-12-16T04:15:54.643Z,74.37
2018-12-16T04:16:54.522Z,74.67
2018-12-16T04:17:54.558Z,75.1
2018-12-16T04:18:54.515Z,75.49
2018-12-16T04:19:54.523Z,75.97
2018-12-16T04:20:54.546Z,76.51
2018-12-16T04:21:55.355Z,76.57
2018-12-16T04:22:54.708Z,76.47
2018-12-16T04:23:54.649Z,77.15
2018-12-16T04:24:54.694Z,77.9
2018-12-16T04:25:54.664Z,77.89
2018-12-16T04:26:55.015Z,78.06
2018-12-16T04:27:54.686Z,78.81
2018-12-16T04:28:54.576Z,78.84
2018-12-16T04:29:54.568Z,80.09
2018-12-16T04:30:54.700Z,79.6
2018-12-16T04:31:54.663Z,79.93
2018-12-16T04:32:54.828Z,80.34
2018-12-16T04:33:55.355Z,80.33
2018-12-16T04:34:55.310Z,80.72
2018-12-16T04:35:54.891Z,81.01
2018-12-16T04:36:54.684Z,81.21
2018-12-16T04:37:54.484Z,81.42
2018-12-16T04:38:54.629Z,81.9
2018-12-16T04:39:54.585Z,81.94
2018-12-16T04:40:54.573Z,82.67
2018-12-16T04:41:54.497Z,82.86
2018-12-16T04:42:54.682Z,82.5
2018-12-16T04:43:54.651Z,82.43
2018-12-16T04:44:54.534Z,82.69
2018-12-16T04:45:54.546Z,82.8
2018-12-16T04:46:54.552Z,83.01
2018-12-16T04:47:54.519Z,83.26
2018-12-16T04:48:54.530Z,83.27
2018-12-16T04:49:54.534Z,83.08
2018-12-16T04:50:54.509Z,83.04
2018-12-16T04:51:54.470Z,83.37
2018-12-16T04:52:54.626Z,83.4
2018-12-16T04:53:54.717Z,83.16
2018-12-16T04:54:54.707Z,82.93
2018-12-16T04:55:54.476Z,83.42
2018-12-16T04:56:54.674Z,83.31
2018-12-16T04:57:54.532Z,83.99
2018-12-16T04:58:54.538Z,83.83
2018-12-16T04:59:54.488Z,83.69
2018-12-16T05:00:54.686Z,83.85
2018-12-16T05:01:54.686Z,83.52
2018-12-16T05:02:54.477Z,83.32
2018-12-16T05:03:54.548Z,83.85
2018-12-16T05:04:54.763Z,83.46
2018-12-16T05:05:54.581Z,83.75
2018-12-16T05:06:54.584Z,84.37
2018-12-16T05:07:54.648Z,83.97
2018-12-16T05:08:54.498Z,84.15
2018-12-16T05:09:54.488Z,84.16
2018-12-16T05:10:54.539Z,84.44
2018-12-16T05:11:54.573Z,84.59
2018-12-16T05:12:54.561Z,84.44
2018-12-16T05:13:54.600Z,84.46
2018-12-16T05:14:54.560Z,84.68
2018-12-16T05:15:54.511Z,84.94
2018-12-16T05:16:54.826Z,85.43
2018-12-16T05:17:54.459Z,85.25
2018-12-16T05:18:54.521Z,84.55
2018-12-16T05:19:55.275Z,85.1
2018-12-16T05:20:54.464Z,85.08
2018-12-16T05:21:54.768Z,85.33
2018-12-16T05:22:54.782Z,84.9
2018-12-16T05:23:54.681Z,84.85
2018-12-16T05:24:54.626Z,85.29
2018-12-16T05:25:55.281Z,85.35
2018-12-16T05:26:54.512Z,85.42
2018-12-16T05:27:54.607Z,85.49
2018-12-16T05:28:55.303Z,85.75
2018-12-16T05:29:58.788Z,85.43
2018-12-16T05:30:54.584Z,85.74
2018-12-16T05:31:54.457Z,86.27
2018-12-16T05:32:54.421Z,86.05
2018-12-16T05:33:55.228Z,86.11
2018-12-16T05:34:54.573Z,86.14
2018-12-16T05:35:54.603Z,86.15
2018-12-16T05:36:54.790Z,86.47
2018-12-16T05:37:54.419Z,86.16
2018-12-16T05:38:54.618Z,85.89
2018-12-16T05:39:54.469Z,86.19
2018-12-16T05:40:54.440Z,86.05
2018-12-16T05:41:54.447Z,86.01
2018-12-16T05:42:54.511Z,86.59
2018-12-16T05:43:54.462Z,86.39
2018-12-16T05:44:54.419Z,86.45
2018-12-16T05:45:54.536Z,86.23
2018-12-16T05:46:54.504Z,86.54
2018-12-16T05:47:54.531Z,86.92
2018-12-16T05:48:54.399Z,86.2
2018-12-16T05:49:54.438Z,86.5
2018-12-16T05:50:54.443Z,86.44
2018-12-16T05:51:54.383Z,86.94
2018-12-16T05:52:54.447Z,87.24
2018-12-16T05:53:54.465Z,86.63
2018-12-16T05:54:54.398Z,86.99
2018-12-16T05:55:54.459Z,87.21
2018-12-16T05:56:54.458Z,87.1
2018-12-16T05:57:54.449Z,87.17
2018-12-16T05:58:54.417Z,87.23
2018-12-16T05:59:54.863Z,87.13
2018-12-16T06:00:54.430Z,87.31
2018-12-16T06:01:54.574Z,87.13
2018-12-16T06:02:54.569Z,87.05
2018-12-16T06:03:55.163Z,87.4
2018-12-16T06:04:54.580Z,87.13
2018-12-16T06:05:54.532Z,87.2
2018-12-16T06:06:54.556Z,87.48
2018-12-16T06:07:54.624Z,87.37
2018-12-16T06:08:54.450Z,87.38
2018-12-16T06:09:54.603Z,87.6
2018-12-16T06:10:54.591Z,87.79
2018-12-16T06:11:54.456Z,87.55
2018-12-16T06:12:54.550Z,87.39
2018-12-16T06:13:55.236Z,87.6
2018-12-16T06:14:54.583Z,87.7
2018-12-16T06:15:54.474Z,87.7
2018-12-16T06:16:54.346Z,87.44
2018-12-16T06:17:54.394Z,87.43
2018-12-16T06:18:55.190Z,87.46
2018-12-16T06:19:54.391Z,87.63
2018-12-16T06:20:54.407Z,87.81
2018-12-16T06:21:54.456Z,87.66
2018-12-16T06:22:54.340Z,87.4
2018-12-16T06:23:56.117Z,87.62
2018-12-16T06:24:54.444Z,87.7
2018-12-16T06:25:54.834Z,87.76
2018-12-16T06:26:54.810Z,87.47
2018-12-16T06:27:54.918Z,87.62
2018-12-16T06:28:54.327Z,88.17
2018-12-16T06:29:54.554Z,88.15
2018-12-16T06:30:54.356Z,87.45
2018-12-16T06:31:55.507Z,87.78
2018-12-16T06:32:54.510Z,87.52
2018-12-16T06:33:54.646Z,87.61
2018-12-16T06:34:54.565Z,87.91
2018-12-16T06:35:54.399Z,87.73
2018-12-16T06:36:54.556Z,87.63
2018-12-16T06:37:54.545Z,87.76
2018-12-16T06:38:54.338Z,87.69
2018-12-16T06:39:55.206Z,87.86
2018-12-16T06:40:54.387Z,87.64
2018-12-16T06:41:55.522Z,87.83
2018-12-16T06:42:54.326Z,87.78
2018-12-16T06:43:54.357Z,87.77
2018-12-16T06:44:54.437Z,88.06
2018-12-16T06:45:54.485Z,87.58
2018-12-16T06:46:54.522Z,88.04
2018-12-16T06:47:54.414Z,88.19
2018-12-16T06:48:54.351Z,88.21
2018-12-16T06:49:54.326Z,87.94
2018-12-16T06:50:54.740Z,87.59
2018-12-16T06:51:54.485Z,87.73
2018-12-16T06:52:54.358Z,87.61
2018-12-16T06:53:54.572Z,87.62
2018-12-16T06:54:54.624Z,87.77
2018-12-16T06:55:54.520Z,88.08
2018-12-16T06:56:54.479Z,87.79
2018-12-16T06:57:54.806Z,87.57
2018-12-16T06:58:54.431Z,87.58
2018-12-16T06:59:54.341Z,87.51
2018-12-16T07:00:54.433Z,87.35
2018-12-16T07:01:54.409Z,87.41
2018-12-16T07:02:54.498Z,87.82
2018-12-16T07:03:54.596Z,87.31
2018-12-16T07:04:54.362Z,87.66
2018-12-16T07:05:54.584Z,87.27
2018-12-16T07:06:54.295Z,87.65
2018-12-16T07:07:54.533Z,87.61
2018-12-16T07:08:54.538Z,87.55
2018-12-16T07:09:54.422Z,87.75
2018-12-16T07:10:54.381Z,87.11
2018-12-16T07:11:54.338Z,87.82
2018-12-16T07:12:54.349Z,87.5
2018-12-16T07:13:54.390Z,87.69
2018-12-16T07:14:54.852Z,86.99
2018-12-16T07:15:54.442Z,87.09
2018-12-16T07:16:54.317Z,87.32
2018-12-16T07:17:54.316Z,87.14
2018-12-16T07:18:54.494Z,87.37
2018-12-16T07:19:54.364Z,87.04
2018-12-16T07:20:54.523Z,86.83
2018-12-16T07:21:54.431Z,86.73
2018-12-16T07:22:54.421Z,86.86
2018-12-16T07:23:54.324Z,87.17
2018-12-16T07:24:54.382Z,86.9
2018-12-16T07:25:54.393Z,87.05
2018-12-16T07:26:54.438Z,87.36
2018-12-16T07:27:54.368Z,87.32
2018-12-16T07:28:54.360Z,87.18
2018-12-16T07:29:54.291Z,87.16
2018-12-16T07:30:54.378Z,87.74
2018-12-16T07:31:54.414Z,87.55
2018-12-16T07:32:54.270Z,87.52
2018-12-16T07:33:54.600Z,87.49
2018-12-16T07:34:54.320Z,87.69
2018-12-16T07:35:54.709Z,87.46
2018-12-16T07:36:54.309Z,87.84
2018-12-16T07:37:54.446Z,87.84
2018-12-16T07:38:54.536Z,87.81
2018-12-16T07:39:54.706Z,87.55
2018-12-16T07:40:54.490Z,87.66
2018-12-16T07:41:54.351Z,87.67
2018-12-16T07:42:54.448Z,87.32
2018-12-16T07:43:55.103Z,87.18
2018-12-16T07:44:54.680Z,87.26
2018-12-16T07:45:54.278Z,87.47
2018-12-16T07:46:54.366Z,88.04
2018-12-16T07:47:54.328Z,87.73
2018-12-16T07:48:54.600Z,87.76
2018-12-16T07:49:54.473Z,87.84
2018-12-16T07:50:54.282Z,87.82
2018-12-16T07:51:54.570Z,87.64
2018-12-16T07:52:54.320Z,87.73
2018-12-16T07:53:54.750Z,87.43
2018-12-16T07:54:54.465Z,87.82
2018-12-16T07:55:54.377Z,87.49
2018-12-16T07:56:54.378Z,87.94
2018-12-16T07:57:54.446Z,87.99
2018-12-16T07:58:54.485Z,87.42
2018-12-16T07:59:54.209Z,87.42
2018-12-16T08:00:54.628Z,87.11
2018-12-16T08:01:54.384Z,87.21
2018-12-16T08:02:54.453Z,87.51
2018-12-16T08:03:54.381Z,87.39
2018-12-16T08:04:54.231Z,87.58
2018-12-16T08:05:54.326Z,87.4
2018-12-16T08:06:54.432Z,87.65
2018-12-16T08:07:54.389Z,87.55
2018-12-16T08:08:54.297Z,87.83
2018-12-16T08:09:54.301Z,87.82
2018-12-16T08:10:54.433Z,87.51
2018-12-16T08:11:54.279Z,88.01
2018-12-16T08:12:54.290Z,87.4
2018-12-16T08:13:54.536Z,87.56
2018-12-16T08:14:54.283Z,87.78
2018-12-16T08:15:54.221Z,87.94
2018-12-16T08:16:54.350Z,87.8
2018-12-16T08:17:54.443Z,87.99
2018-12-16T08:18:54.175Z,87.87
2018-12-16T08:19:54.237Z,87.84
2018-12-16T08:20:54.243Z,88.2
2018-12-16T08:21:54.431Z,87.89
2018-12-16T08:22:54.327Z,87.7
2018-12-16T08:23:55.033Z,87.22
2018-12-16T08:24:54.406Z,87.62
2018-12-16T08:25:54.262Z,87.78
2018-12-16T08:26:55.001Z,87.48
2018-12-16T08:27:54.359Z,88.05
2018-12-16T08:28:54.285Z,87.79
2018-12-16T08:29:54.473Z,87.57
2018-12-16T08:30:54.228Z,87.53
2018-12-16T08:31:54.429Z,87.65
2018-12-16T08:32:54.234Z,87.53
2018-12-16T08:33:54.269Z,87.27
2018-12-16T08:34:54.257Z,87.42
2018-12-16T08:35:54.387Z,87.59
2018-12-16T08:36:54.209Z,88.07
2018-12-16T08:37:54.265Z,87.99
2018-12-16T08:38:54.466Z,87.66
2018-12-16T08:39:54.303Z,87.72
2018-12-16T08:40:54.595Z,88.02
2018-12-16T08:41:54.308Z,87.64
2018-12-16T08:42:54.266Z,87.82
2018-12-16T08:43:54.330Z,87.94
2018-12-16T08:44:54.295Z,87.97
2018-12-16T08:45:54.369Z,87.87
2018-12-16T08:46:54.241Z,87.97
2018-12-16T08:47:54.392Z,88.15
2018-12-16T08:48:54.973Z,87.42
2018-12-16T08:49:54.834Z,87.47
2018-12-16T08:50:54.272Z,87.92
2018-12-16T08:51:54.942Z,87.78
2018-12-16T08:52:55.229Z,88.12
2018-12-16T08:53:54.322Z,87.76
2018-12-16T08:54:54.470Z,87.98
2018-12-16T08:55:54.367Z,87.44
2018-12-16T08:56:54.655Z,87.79
2018-12-16T08:57:54.207Z,87.78
2018-12-16T08:58:54.246Z,88.18
2018-12-16T08:59:54.203Z,88.07
2018-12-16T09:00:54.176Z,88.13
2018-12-16T09:01:54.143Z,88.11
2018-12-16T09:02:54.156Z,87.58
2018-12-16T09:03:54.186Z,87.56
2018-12-16T09:04:54.151Z,87.75
2018-12-16T09:05:54.142Z,87.7
2018-12-16T09:06:54.145Z,87.89
2018-12-16T09:07:54.261Z,87.63
2018-12-16T09:08:54.182Z,87.75
2018-12-16T09:09:54.233Z,87.75
2018-12-16T09:10:54.358Z,87.68
2018-12-16T09:11:54.209Z,87.81
2018-12-16T09:12:54.161Z,87.64
2018-12-16T09:13:54.571Z,87.86
2018-12-16T09:14:54.150Z,88.05
2018-12-16T09:15:54.929Z,88.09
2018-12-16T09:16:54.461Z,88.3
2018-12-16T09:17:54.225Z,87.95
2018-12-16T09:18:54.100Z,88.13
2018-12-16T09:19:54.223Z,87.8
2018-12-16T09:20:54.216Z,88.28
2018-12-16T09:21:54.489Z,88.19
2018-12-16T09:22:54.600Z,88.18
2018-12-16T09:23:54.291Z,88.15
2018-12-16T09:24:54.323Z,88.55
2018-12-16T09:25:54.233Z,88.13
2018-12-16T09:26:54.109Z,87.9
2018-12-16T09:27:54.198Z,88.29
2018-12-16T09:28:54.168Z,88.39
2018-12-16T09:29:54.252Z,88.61
2018-12-16T09:30:58.450Z,88.58
2018-12-16T09:31:54.323Z,88.29
2018-12-16T09:32:54.923Z,88.28
2018-12-16T09:33:54.142Z,88.5
2018-12-16T09:34:54.196Z,88.25
2018-12-16T09:35:54.161Z,88.11
2018-12-16T09:36:54.330Z,88.05
2018-12-16T09:37:54.551Z,88.47
2018-12-16T09:38:54.147Z,88.12
2018-12-16T09:39:54.092Z,88.01
2018-12-16T09:40:54.121Z,87.93
2018-12-16T09:41:54.163Z,87.92
2018-12-16T09:42:54.066Z,88.07
2018-12-16T09:43:54.070Z,88.21
2018-12-16T09:44:54.065Z,88.04
2018-12-16T09:45:54.140Z,88.36
2018-12-16T09:46:54.197Z,88.5
2018-12-16T09:47:54.426Z,88.37
2018-12-16T09:48:54.113Z,88.17
2018-12-16T09:49:54.472Z,88.04
2018-12-16T09:50:54.290Z,88.58
2018-12-16T09:51:54.088Z,88.43
2018-12-16T09:52:54.294Z,88.28
2018-12-16T09:53:54.202Z,88.41
2018-12-16T09:54:54.107Z,88.42
2018-12-16T09:55:54.451Z,88.35
2018-12-16T09:56:54.082Z,88.4
2018-12-16T09:57:54.223Z,88.31
2018-12-16T09:58:54.128Z,88.79
2018-12-16T09:59:54.223Z,88.3
2018-12-16T10:00:54.475Z,88.24
2018-12-16T10:01:54.201Z,88.46
2018-12-16T10:02:54.211Z,87.95
2018-12-16T10:03:54.045Z,87.71
2018-12-16T10:04:54.298Z,88.12
2018-12-16T10:05:54.538Z,88.03
2018-12-16T10:06:54.276Z,87.83
2018-12-16T10:07:54.249Z,87.85
2018-12-16T10:08:54.257Z,87.47
2018-12-16T10:09:54.245Z,87.69
2018-12-16T10:10:54.489Z,87.48
2018-12-16T10:11:54.061Z,88.04
2018-12-16T10:12:54.266Z,87.75
2018-12-16T10:13:54.604Z,87.68
2018-12-16T10:14:54.171Z,87.79
2018-12-16T10:15:54.245Z,87.42
2018-12-16T10:16:54.037Z,87.54
2018-12-16T10:17:54.086Z,87.36
2018-12-16T10:18:54.184Z,87.19
2018-12-16T10:19:54.067Z,87.41
2018-12-16T10:20:54.184Z,87.53
2018-12-16T10:21:54.865Z,87.52
2018-12-16T10:22:54.171Z,87.26
2018-12-16T10:23:54.041Z,86.93
2018-12-16T10:24:54.868Z,87.05
2018-12-16T10:25:54.090Z,86.98
2018-12-16T10:26:54.197Z,87.06
2018-12-16T10:27:54.019Z,87.49
2018-12-16T10:28:54.323Z,87.31
2018-12-16T10:29:54.046Z,87.59
2018-12-16T10:30:54.149Z,87.4
2018-12-16T10:31:54.276Z,87.68
2018-12-16T10:32:54.025Z,87.42
2018-12-16T10:33:54.186Z,87.35
2018-12-16T10:34:54.034Z,87.1
2018-12-16T10:35:54.261Z,87.21
2018-12-16T10:36:54.217Z,87.19
2018-12-16T10:37:54.050Z,86.58
2018-12-16T10:38:57.339Z,86.95
2018-12-16T10:39:54.138Z,87.16
2018-12-16T10:40:56.910Z,87.33
2018-12-16T10:41:55.136Z,87.58
2018-12-16T10:42:54.258Z,87.55
2018-12-16T10:43:54.395Z,87.52
2018-12-16T10:44:54.059Z,87.54
2018-12-16T10:45:54.314Z,87.7
2018-12-16T10:46:54.146Z,87.55
2018-12-16T10:47:54.105Z,87.55
2018-12-16T10:48:54.095Z,87.75
2018-12-16T10:49:54.168Z,87.62
2018-12-16T10:50:54.150Z,87.8
2018-12-16T10:51:54.163Z,87.8
2018-12-16T10:52:54.073Z,87.5
2018-12-16T10:53:54.682Z,87.46
2018-12-16T10:54:58.956Z,87.71
2018-12-16T10:55:54.058Z,87.63
2018-12-16T10:56:55.574Z,87.56
2018-12-16T10:57:54.842Z,87.6
2018-12-16T10:58:54.165Z,87.35
2018-12-16T10:59:54.179Z,87.2
2018-12-16T11:00:54.080Z,87.26
2018-12-16T11:01:54.261Z,87.42
2018-12-16T11:02:59.157Z,87.59
2018-12-16T11:03:58.536Z,87.21
2018-12-16T11:04:57.693Z,87.19
2018-12-16T11:05:56.857Z,86.96
2018-12-16T11:06:57.909Z,86.77
2018-12-16T11:07:55.842Z,86.88
2018-12-16T11:08:55.987Z,87.24
2018-12-16T11:09:54.531Z,87.54
2018-12-16T11:10:54.974Z,87.44
2018-12-16T11:11:54.802Z,87.47
2018-12-16T11:12:57.282Z,87.78
2018-12-16T11:13:59.287Z,87.89
2018-12-16T11:14:58.749Z,87.98
2018-12-16T11:15:59.600Z,87.57
2018-12-16T11:16:55.895Z,87.58
2018-12-16T11:17:55.223Z,88.04
2018-12-16T11:18:55.957Z,87.86
2018-12-16T11:19:54.582Z,87.82
2018-12-16T11:20:56.138Z,88.06
2018-12-16T11:21:55.873Z,88.04
2018-12-16T11:22:58.430Z,88.21
2018-12-16T11:23:56.399Z,88.1
2018-12-16T11:24:56.840Z,88.18
2018-12-16T11:25:55.786Z,87.78
2018-12-16T11:26:57.451Z,88.11
2018-12-16T11:28:59.152Z,88.16
2018-12-16T11:29:56.779Z,88.33
2018-12-16T11:30:56.330Z,88.33
2018-12-16T11:31:55.894Z,87.98
2018-12-16T11:32:56.946Z,88.33
2018-12-16T11:33:55.816Z,88.67
2018-12-16T11:34:56.422Z,88.83
2018-12-16T11:35:55.794Z,88.86
2018-12-16T11:36:57.066Z,88.77
2018-12-16T11:38:00.385Z,88.28
2018-12-16T11:38:56.180Z,88.41
2018-12-16T11:39:57.538Z,88.51
2018-12-16T11:40:56.126Z,88.69
2018-12-16T11:41:56.398Z,88.59
2018-12-16T11:42:56.395Z,88.47
2018-12-16T11:43:54.581Z,88.76
2018-12-16T11:44:56.087Z,88.5
2018-12-16T11:45:56.566Z,88.67
2018-12-16T11:46:55.633Z,88.75
2018-12-16T11:47:58.882Z,89.41
2018-12-16T11:48:59.002Z,88.99
2018-12-16T11:49:56.047Z,88.65
2018-12-16T11:50:56.097Z,88.91
2018-12-16T11:51:57.070Z,88.93
2018-12-16T11:52:56.028Z,88.83
2018-12-16T11:53:56.521Z,88.83
2018-12-16T11:54:56.940Z,88.71
2018-12-16T11:55:56.121Z,88.64
2018-12-16T11:56:57.870Z,88.65
2018-12-16T11:57:56.810Z,88.48
2018-12-16T11:58:56.073Z,88.36
2018-12-16T11:59:54.723Z,88.55
2018-12-16T12:01:16.964Z,88.3
2018-12-16T12:03:57.794Z,88.11
2018-12-16T12:04:57.158Z,88.42
2018-12-16T12:05:19.216Z,88.24
2018-12-16T12:05:57.531Z,88.43
2018-12-16T12:06:54.383Z,88.53
2018-12-16T12:07:54.146Z,88.25
2018-12-16T12:08:54.103Z,88.49
2018-12-16T12:09:54.351Z,88.46
2018-12-16T12:10:54.048Z,88.38
2018-12-16T12:11:54.021Z,88.49
2018-12-16T12:12:53.925Z,88.48
2018-12-16T12:13:54.049Z,88.73
2018-12-16T12:14:53.849Z,88.44
2018-12-16T12:15:53.894Z,88.14
2018-12-16T12:16:54.392Z,88.15
2018-12-16T12:17:53.924Z,88.05
2018-12-16T12:18:53.829Z,88.24
2018-12-16T12:19:53.974Z,88.14
2018-12-16T12:20:53.894Z,88.35
2018-12-16T12:21:54.125Z,88.38
2018-12-16T12:22:53.862Z,88.89
2018-12-16T12:23:54.225Z,89.42
2018-12-16T12:24:53.976Z,89.09
2018-12-16T12:25:53.966Z,89.28
2018-12-16T12:26:54.040Z,89.32
2018-12-16T12:27:54.279Z,89.23
2018-12-16T12:28:53.929Z,88.82
2018-12-16T12:29:54.055Z,89.32
2018-12-16T12:30:54.105Z,88.58
2018-12-16T12:31:54.025Z,88.92
2018-12-16T12:32:53.913Z,88.5
2018-12-16T12:33:54.341Z,88.69
2018-12-16T12:34:54.010Z,89.02
2018-12-16T12:35:54.124Z,88.46
2018-12-16T12:36:54.100Z,88.7
2018-12-16T12:37:53.900Z,88.04
2018-12-16T12:38:53.894Z,88.25
2018-12-16T12:39:54.183Z,89.5
2018-12-16T12:40:54.764Z,89.14
2018-12-16T12:41:54.659Z,89.59
2018-12-16T12:42:53.948Z,88.94
2018-12-16T12:43:53.899Z,88.74
2018-12-16T12:44:53.931Z,88.54
2018-12-16T12:45:54.130Z,88.76
2018-12-16T12:46:53.817Z,88.45
2018-12-16T12:47:53.999Z,88.83
2018-12-16T12:48:54.032Z,88.82
2018-12-16T12:49:53.851Z,89.11
2018-12-16T12:50:53.848Z,88.69
2018-12-16T12:51:54.018Z,89.24
2018-12-16T12:52:53.864Z,89.22
2018-12-16T12:53:54.036Z,89.48
2018-12-16T12:54:54.078Z,89.21
2018-12-16T12:55:53.826Z,89.15
2018-12-16T12:56:53.788Z,88.98
2018-12-16T12:57:53.842Z,88.99